createdAt,value
2017-09-28T00:02:28.105Z,84.60
2017-09-28T00:04:56.357Z,81.00
2017-09-28T00:07:24.610Z,83.40
2017-09-28T00:09:52.881Z,79.80
2017-09-28T00:12:21.137Z,83.50
2017-09-28T00:14:50.154Z,83.50
2017-09-28T00:17:18.542Z,83.60
2017-09-28T00:19:46.801Z,82.80
2017-09-28T00:22:15.053Z,82.30
2017-09-28T00:24:43.342Z,81.60
2017-09-28T00:27:12.354Z,82.90
2017-09-28T00:29:40.605Z,82.90
2017-09-28T00:32:08.885Z,82.80
2017-09-28T00:34:37.895Z,84.50
2017-09-28T00:37:06.151Z,84.30
2017-09-28T00:39:35.812Z,81.00
2017-09-28T00:42:04.058Z,81.00
2017-09-28T00:44:32.314Z,81.00
2017-09-28T00:47:01.510Z,80.90
2017-09-28T00:49:30.526Z,83.80
2017-09-28T00:51:58.790Z,84.00
2017-09-28T00:54:27.057Z,84.30
2017-09-28T00:56:55.309Z,81.60
2017-09-28T00:59:23.565Z,83.80
2017-09-28T01:01:51.961Z,83.70
2017-09-28T01:04:20.225Z,86.30
2017-09-28T01:06:48.483Z,84.30
2017-09-28T01:09:16.761Z,83.30
2017-09-28T01:11:45.033Z,83.00
2017-09-28T01:14:13.275Z,82.50
2017-09-28T01:16:42.314Z,85.40
2017-09-28T01:19:10.669Z,85.40
2017-09-28T01:21:38.918Z,81.90
2017-09-28T01:24:08.299Z,82.80
2017-09-28T01:26:36.545Z,82.70
2017-09-28T01:29:04.790Z,85.00
2017-09-28T01:31:33.061Z,81.70
2017-09-28T01:34:01.311Z,86.10
2017-09-28T01:36:29.564Z,84.20
2017-09-28T01:38:57.840Z,84.00
2017-09-28T01:41:26.090Z,89.30
2017-09-28T01:43:54.338Z,86.60
2017-09-28T01:46:22.785Z,83.60
2017-09-28T01:48:51.036Z,84.70
2017-09-28T01:51:19.284Z,83.20
2017-09-28T01:53:47.557Z,83.20
2017-09-28T01:56:15.801Z,86.70
2017-09-28T01:58:44.050Z,83.00
2017-09-28T02:01:12.333Z,84.70
2017-09-28T02:03:40.578Z,85.60
2017-09-28T02:06:09.921Z,85.20
2017-09-28T02:08:38.682Z,85.70
2017-09-28T02:11:06.941Z,87.10
2017-09-28T02:13:35.186Z,83.80
2017-09-28T02:16:03.474Z,85.90
2017-09-28T02:18:32.498Z,86.90
2017-09-28T02:21:01.154Z,86.70
2017-09-28T02:23:30.192Z,84.80
2017-09-28T02:25:58.446Z,84.70
2017-09-28T02:28:26.698Z,83.40
2017-09-28T02:30:55.101Z,83.20
2017-09-28T02:33:23.355Z,83.00
2017-09-28T02:35:52.369Z,89.20
2017-09-28T02:38:20.645Z,88.90
2017-09-28T02:40:48.902Z,86.00
2017-09-28T02:43:17.918Z,83.60
2017-09-28T02:45:46.193Z,83.60
2017-09-28T02:48:14.450Z,85.30
2017-09-28T02:50:43.461Z,86.70
2017-09-28T02:53:11.785Z,86.80
2017-09-28T02:55:40.055Z,84.60
2017-09-28T02:58:08.297Z,86.20
2017-09-28T03:00:36.573Z,83.20
2017-09-28T03:03:04.826Z,84.10
2017-09-28T03:05:33.841Z,87.60
2017-09-28T03:08:02.119Z,87.70
2017-09-28T03:10:30.365Z,85.80
2017-09-28T03:12:59.841Z,85.20
2017-09-28T03:15:28.302Z,84.70
2017-09-28T03:17:56.566Z,84.70
2017-09-28T03:20:24.817Z,84.50
2017-09-28T03:22:53.414Z,84.80
2017-09-28T03:25:21.706Z,87.80
2017-09-28T03:27:49.941Z,87.80
2017-09-28T03:30:18.222Z,88.40
2017-09-28T03:32:47.237Z,84.50
2017-09-28T03:35:15.485Z,84.40
2017-09-28T03:37:44.673Z,84.50
2017-09-28T03:40:12.930Z,85.30
2017-09-28T03:42:41.173Z,85.40
2017-09-28T03:45:09.450Z,85.10
2017-09-28T03:47:37.770Z,86.10
2017-09-28T03:50:06.021Z,86.80
2017-09-28T03:52:35.062Z,88.40
2017-09-28T03:55:04.081Z,89.30
2017-09-28T03:57:32.341Z,89.20
2017-09-28T04:00:01.714Z,89.20
2017-09-28T04:02:30.013Z,89.20
2017-09-28T04:04:58.265Z,87.40
2017-09-28T04:07:26.542Z,88.70
2017-09-28T04:09:54.791Z,89.10
2017-09-28T04:12:23.041Z,90.60
2017-09-28T04:14:51.322Z,89.90
2017-09-28T04:17:19.574Z,90.30
2017-09-28T04:19:48.585Z,87.80
2017-09-28T04:22:17.297Z,87.70
2017-09-28T04:24:45.946Z,90.90
2017-09-28T04:27:14.216Z,88.10
2017-09-28T04:29:42.491Z,88.80
2017-09-28T04:32:10.751Z,89.10
2017-09-28T04:34:39.009Z,88.10
2017-09-28T04:37:07.575Z,90.20
2017-09-28T04:39:35.827Z,89.10
2017-09-28T04:42:04.081Z,90.80
2017-09-28T04:44:32.826Z,90.40
2017-09-28T04:47:01.078Z,90.40
2017-09-28T04:49:29.326Z,90.60
2017-09-28T04:51:58.370Z,90.10
2017-09-28T04:54:26.621Z,90.10
2017-09-28T04:56:54.868Z,90.10
2017-09-28T04:59:23.905Z,89.40
2017-09-28T05:01:52.168Z,89.30
2017-09-28T05:04:20.420Z,89.50
2017-09-28T05:06:48.894Z,89.10
2017-09-28T05:09:17.146Z,90.60
2017-09-28T05:11:45.393Z,90.20
2017-09-28T05:14:13.669Z,90.00
2017-09-28T05:16:42.070Z,90.80
2017-09-28T05:19:10.318Z,90.70
2017-09-28T05:21:38.586Z,90.90
2017-09-28T05:24:06.836Z,90.80
2017-09-28T05:26:36.032Z,90.90
2017-09-28T05:29:04.477Z,90.90
2017-09-28T05:31:32.710Z,91.70
2017-09-28T05:34:00.966Z,91.10
2017-09-28T05:36:29.245Z,92.70
2017-09-28T05:38:58.404Z,90.90
2017-09-28T05:41:26.650Z,91.10
2017-09-28T05:43:54.955Z,92.20
2017-09-28T05:46:23.990Z,91.30
2017-09-28T05:48:52.222Z,91.30
2017-09-28T05:51:20.711Z,91.20
2017-09-28T05:53:48.962Z,91.40
2017-09-28T05:56:17.253Z,91.30
2017-09-28T05:58:45.548Z,93.60
2017-09-28T06:01:13.846Z,92.60
2017-09-28T06:03:42.163Z,92.30
2017-09-28T06:06:10.469Z,92.30
2017-09-28T06:08:38.772Z,93.80
2017-09-28T06:11:07.371Z,92.30
2017-09-28T06:13:36.206Z,92.10
2017-09-28T06:16:04.454Z,92.20
2017-09-28T06:18:32.850Z,92.10
2017-09-28T06:21:01.169Z,92.10
2017-09-28T06:23:29.445Z,92.10
2017-09-28T06:25:57.687Z,92.20
2017-09-28T06:28:26.504Z,91.30
2017-09-28T06:30:54.758Z,91.30
2017-09-28T06:33:23.159Z,90.80
2017-09-28T06:35:51.622Z,90.80
2017-09-28T06:38:19.913Z,91.20
2017-09-28T06:40:48.192Z,91.10
2017-09-28T06:43:17.234Z,90.50
2017-09-28T06:45:45.526Z,90.80
2017-09-28T06:48:13.803Z,90.60
2017-09-28T06:50:42.087Z,90.10
2017-09-28T06:53:11.103Z,90.50
2017-09-28T06:55:39.590Z,90.00
2017-09-28T06:58:08.050Z,88.90
2017-09-28T07:00:36.436Z,89.90
2017-09-28T07:03:04.697Z,89.60
2017-09-28T07:05:32.960Z,88.10
2017-09-28T07:08:01.226Z,90.00
2017-09-28T07:10:29.482Z,89.50
2017-09-28T07:12:58.000Z,88.90
2017-09-28T07:15:26.374Z,90.00
2017-09-28T07:17:54.629Z,88.90
2017-09-28T07:20:23.766Z,88.40
2017-09-28T07:22:52.009Z,88.30
2017-09-28T07:25:21.034Z,87.30
2017-09-28T07:27:49.312Z,87.30
2017-09-28T07:30:18.075Z,87.80
2017-09-28T07:32:46.321Z,88.40
2017-09-28T07:35:14.597Z,89.80
2017-09-28T07:37:42.865Z,87.80
2017-09-28T07:40:11.116Z,88.80
2017-09-28T07:42:39.573Z,89.50
2017-09-28T07:45:07.826Z,89.50
2017-09-28T07:47:36.855Z,88.40
2017-09-28T07:50:05.129Z,88.30
2017-09-28T07:52:33.410Z,89.10
2017-09-28T07:55:02.402Z,87.50
2017-09-28T07:57:30.674Z,87.50
2017-09-28T07:59:58.917Z,87.30
2017-09-28T08:02:27.941Z,86.20
2017-09-28T08:04:56.463Z,86.00
2017-09-28T08:07:24.726Z,85.10
2017-09-28T08:09:52.994Z,85.20
2017-09-28T08:12:21.274Z,85.60
2017-09-28T08:14:49.534Z,84.70
2017-09-28T08:17:17.774Z,83.40
2017-09-28T08:19:46.121Z,82.80
2017-09-28T08:22:14.375Z,82.80
2017-09-28T08:24:42.656Z,82.70
2017-09-28T08:27:11.079Z,83.10
2017-09-28T08:29:39.639Z,83.00
2017-09-28T08:32:08.233Z,83.10
2017-09-28T08:34:36.533Z,84.00
2017-09-28T08:37:05.596Z,83.60
2017-09-28T08:39:33.841Z,83.60
2017-09-28T08:42:02.873Z,83.10
2017-09-28T08:44:32.046Z,83.10
2017-09-28T08:47:01.318Z,82.80
2017-09-28T08:49:29.658Z,82.70
2017-09-28T08:51:57.921Z,84.50
2017-09-28T08:54:26.197Z,84.40
2017-09-28T08:56:54.490Z,85.70
2017-09-28T08:59:22.958Z,86.40
2017-09-28T09:01:51.198Z,85.60
2017-09-28T09:04:19.477Z,85.80
2017-09-28T09:06:47.730Z,86.70
2017-09-28T09:09:16.164Z,85.80
2017-09-28T09:11:44.779Z,84.40
2017-09-28T09:14:13.162Z,84.30
2017-09-28T09:16:41.430Z,85.30
2017-09-28T09:19:09.697Z,84.30
2017-09-28T09:21:37.965Z,84.30
2017-09-28T09:24:06.237Z,84.30
2017-09-28T09:26:34.502Z,83.50
2017-09-28T09:29:02.758Z,83.90
2017-09-28T09:31:31.002Z,83.20
2017-09-28T09:34:00.224Z,83.40
2017-09-28T09:36:28.502Z,82.90
2017-09-28T09:38:56.754Z,82.00
2017-09-28T09:41:25.094Z,80.60
2017-09-28T09:43:53.358Z,79.40
2017-09-28T09:46:21.593Z,78.70
2017-09-28T09:48:49.877Z,76.30
2017-09-28T09:51:18.121Z,75.40
2017-09-28T09:53:46.614Z,76.00
2017-09-28T09:56:15.425Z,75.10
2017-09-28T09:58:43.677Z,76.00
2017-09-28T10:01:12.070Z,77.70
2017-09-28T10:03:41.115Z,73.30
2017-09-28T10:06:09.394Z,73.20
2017-09-28T10:08:42.514Z,72.30
2017-09-28T10:11:17.939Z,71.40
2017-09-28T10:13:53.070Z,71.40
2017-09-28T10:16:21.354Z,69.70
2017-09-28T10:18:49.620Z,66.40
2017-09-28T10:21:17.921Z,65.00
2017-09-28T10:23:46.202Z,64.50
2017-09-28T10:26:14.665Z,63.60
2017-09-28T10:28:42.913Z,62.90
2017-09-28T10:31:11.171Z,62.90
2017-09-28T10:33:39.421Z,66.20
2017-09-28T10:36:08.106Z,67.90
2017-09-28T10:38:36.383Z,66.00
2017-09-28T10:41:05.407Z,59.30
2017-09-28T10:43:33.938Z,59.20
2017-09-28T10:46:02.194Z,59.20
2017-09-28T10:48:31.097Z,60.30
2017-09-28T10:50:59.422Z,62.60
2017-09-28T10:53:29.044Z,62.60
2017-09-28T10:55:57.293Z,63.90
2017-09-28T10:58:26.633Z,62.10
2017-09-28T11:00:57.474Z,62.10
2017-09-28T11:03:25.799Z,62.00
2017-09-28T11:05:54.118Z,57.30
2017-09-28T11:08:22.374Z,56.80
2017-09-28T11:10:50.618Z,57.60
2017-09-28T11:13:18.890Z,55.60
2017-09-28T11:15:47.138Z,56.40
2017-09-28T11:18:15.414Z,56.40
2017-09-28T11:20:44.583Z,54.20
2017-09-28T11:23:12.830Z,57.00
2017-09-28T11:25:41.103Z,57.20
2017-09-28T11:28:09.408Z,51.00
2017-09-28T11:30:37.635Z,50.80
2017-09-28T11:33:05.925Z,48.60
2017-09-28T11:35:34.440Z,49.80
2017-09-28T11:38:03.701Z,51.20
2017-09-28T11:40:32.026Z,51.30
2017-09-28T11:43:01.707Z,49.00
2017-09-28T11:45:30.005Z,50.00
2017-09-28T11:48:00.558Z,51.20
2017-09-28T11:50:28.913Z,51.60
2017-09-28T11:52:57.175Z,52.20
2017-09-28T11:55:25.676Z,50.90
2017-09-28T11:57:54.827Z,52.10
2017-09-28T12:00:23.151Z,52.10
2017-09-28T12:02:51.479Z,53.50
2017-09-28T12:05:19.918Z,54.10
2017-09-28T12:07:48.368Z,54.40
2017-09-28T12:10:16.963Z,54.10
2017-09-28T12:12:45.284Z,53.40
2017-09-28T12:15:13.599Z,54.50
2017-09-28T12:17:41.860Z,55.70
2017-09-28T12:20:12.223Z,55.40
2017-09-28T12:22:41.309Z,56.60
2017-09-28T12:25:10.677Z,56.70
2017-09-28T12:27:39.102Z,57.60
2017-09-28T12:30:07.338Z,58.10
2017-09-28T12:32:35.586Z,59.20
2017-09-28T12:35:04.642Z,56.00
2017-09-28T12:37:33.704Z,55.20
2017-09-28T12:40:02.330Z,55.20
2017-09-28T12:42:31.381Z,52.90
2017-09-28T12:44:59.898Z,52.90
2017-09-28T12:47:28.153Z,51.90
2017-09-28T12:49:56.501Z,49.00
2017-09-28T12:52:24.742Z,50.00
2017-09-28T12:54:52.989Z,47.80
2017-09-28T12:57:21.271Z,48.50
2017-09-28T12:59:49.526Z,43.50
2017-09-28T13:02:17.777Z,43.20
2017-09-28T13:04:46.090Z,40.90
2017-09-28T13:07:16.313Z,42.30
2017-09-28T13:09:44.558Z,42.00
2017-09-28T13:12:12.893Z,39.50
2017-09-28T13:14:41.909Z,39.30
2017-09-28T13:17:10.160Z,39.30
2017-09-28T13:19:39.204Z,42.10
2017-09-28T13:22:07.450Z,42.10
2017-09-28T13:24:35.719Z,40.40
2017-09-28T13:27:04.005Z,42.50
2017-09-28T13:29:32.354Z,43.90
2017-09-28T13:32:00.603Z,42.80
2017-09-28T13:34:29.114Z,41.40
2017-09-28T13:36:58.133Z,38.80
2017-09-28T13:39:26.521Z,38.80
2017-09-28T13:41:55.790Z,38.90
2017-09-28T13:44:24.809Z,36.50
2017-09-28T13:46:53.134Z,36.40
2017-09-28T13:49:22.479Z,36.90
2017-09-28T13:51:51.513Z,43.00
2017-09-28T13:54:19.762Z,43.00
2017-09-28T13:56:49.502Z,39.50
2017-09-28T13:59:18.774Z,37.50
2017-09-28T14:01:47.024Z,39.30
2017-09-28T14:04:15.501Z,37.80
2017-09-28T14:06:44.519Z,39.30
2017-09-28T14:09:12.779Z,39.30
2017-09-28T14:11:41.055Z,38.80
2017-09-28T14:14:10.218Z,40.60
2017-09-28T14:16:42.736Z,40.70
2017-09-28T14:19:10.923Z,41.90
2017-09-28T14:21:39.361Z,40.50
2017-09-28T14:24:07.757Z,37.60
2017-09-28T14:26:36.785Z,37.10
2017-09-28T14:29:05.111Z,37.00
2017-09-28T14:31:34.450Z,37.20
2017-09-28T14:34:03.463Z,35.50
2017-09-28T14:36:32.701Z,35.40
2017-09-28T14:39:01.185Z,36.50
2017-09-28T14:41:29.446Z,33.30
2017-09-28T14:43:58.778Z,35.70
2017-09-28T14:46:27.174Z,33.90
2017-09-28T14:48:56.190Z,36.50
2017-09-28T14:51:24.898Z,36.50
2017-09-28T14:53:53.274Z,36.70
2017-09-28T14:56:22.518Z,36.20
2017-09-28T14:58:50.770Z,34.50
2017-09-28T15:01:19.205Z,34.10
2017-09-28T15:03:47.642Z,34.50
2017-09-28T15:06:16.014Z,37.60
2017-09-28T15:08:44.431Z,34.80
2017-09-28T15:11:13.450Z,37.50
2017-09-28T15:13:41.726Z,37.40
2017-09-28T15:16:10.011Z,36.60
2017-09-28T15:18:38.274Z,36.50
2017-09-28T15:21:06.798Z,37.40
2017-09-28T15:23:35.165Z,37.10
2017-09-28T15:26:03.398Z,35.30
2017-09-28T15:28:31.655Z,36.90
2017-09-28T15:31:00.227Z,36.80
2017-09-28T15:33:28.484Z,38.30
2017-09-28T15:35:56.729Z,39.30
2017-09-28T15:38:25.009Z,40.20
2017-09-28T15:40:53.330Z,40.30
2017-09-28T15:43:21.743Z,40.60
2017-09-28T15:45:50.474Z,40.70
2017-09-28T15:48:20.995Z,41.70
2017-09-28T15:50:49.357Z,41.90
2017-09-28T15:53:17.702Z,42.40
2017-09-28T15:55:46.741Z,43.70
2017-09-28T15:58:15.049Z,43.70
2017-09-28T16:00:43.457Z,44.50
2017-09-28T16:03:12.736Z,44.80
2017-09-28T16:05:41.195Z,44.80
2017-09-28T16:08:09.580Z,45.40
2017-09-28T16:10:37.902Z,45.70
2017-09-28T16:13:08.398Z,45.80
2017-09-28T16:15:36.804Z,46.40
2017-09-28T16:18:07.001Z,47.00
2017-09-28T16:20:36.302Z,47.50
2017-09-28T16:23:04.578Z,46.90
2017-09-28T16:25:32.829Z,47.20
2017-09-28T16:28:01.079Z,47.40
2017-09-28T16:30:29.625Z,47.90
2017-09-28T16:32:57.880Z,48.00
2017-09-28T16:35:34.292Z,49.10
2017-09-28T16:38:14.623Z,49.20
2017-09-28T16:40:51.204Z,49.70
2017-09-28T16:43:31.260Z,50.20
2017-09-28T16:46:03.509Z,50.00
2017-09-28T16:48:32.008Z,50.70
2017-09-28T16:51:00.243Z,50.70
2017-09-28T16:53:28.571Z,51.40
2017-09-28T16:55:57.598Z,52.40
2017-09-28T16:58:26.131Z,52.40
2017-09-28T17:00:54.398Z,51.90
2017-09-28T17:03:22.678Z,53.10
2017-09-28T17:05:51.055Z,54.10
2017-09-28T17:08:19.603Z,53.40
2017-09-28T17:10:47.877Z,53.40
2017-09-28T17:13:17.145Z,53.60
2017-09-28T17:15:49.761Z,55.00
2017-09-28T17:18:18.174Z,54.70
2017-09-28T17:20:48.397Z,55.40
2017-09-28T17:23:18.762Z,56.30
2017-09-28T17:25:48.251Z,56.70
2017-09-28T17:28:19.499Z,56.50
2017-09-28T17:30:49.906Z,59.40
2017-09-28T17:33:18.291Z,59.40
2017-09-28T17:35:46.725Z,57.40
2017-09-28T17:38:15.065Z,58.20
2017-09-28T17:40:45.282Z,58.40
2017-09-28T17:43:14.353Z,59.00
2017-09-28T17:45:43.746Z,59.00
2017-09-28T17:48:12.668Z,60.20
2017-09-28T17:50:41.142Z,59.90
2017-09-28T17:53:09.645Z,60.10
2017-09-28T17:55:39.843Z,61.30
2017-09-28T17:58:08.243Z,61.10
2017-09-28T18:00:37.283Z,62.00
2017-09-28T18:03:05.606Z,62.00
2017-09-28T18:05:35.854Z,62.30
2017-09-28T18:08:04.222Z,62.20
2017-09-28T18:10:33.245Z,65.60
2017-09-28T18:13:01.740Z,65.50
2017-09-28T18:15:30.133Z,63.40
2017-09-28T18:18:00.270Z,62.70
2017-09-28T18:20:28.573Z,63.80
2017-09-28T18:22:57.091Z,66.10
2017-09-28T18:25:25.603Z,66.20
2017-09-28T18:27:54.940Z,65.50
2017-09-28T18:30:23.297Z,66.60
2017-09-28T18:32:51.857Z,65.30
2017-09-28T18:35:21.456Z,65.70
2017-09-28T18:37:50.897Z,64.90
2017-09-28T18:40:20.177Z,67.20
2017-09-28T18:42:51.971Z,67.50
2017-09-28T18:45:22.208Z,66.30
2017-09-28T18:47:52.691Z,65.40
2017-09-28T18:50:21.415Z,65.80
2017-09-28T18:52:50.447Z,65.20
2017-09-28T18:55:19.670Z,65.20
2017-09-28T18:57:48.338Z,68.50
2017-09-28T19:00:16.730Z,66.90
2017-09-28T19:02:45.113Z,67.10
2017-09-28T19:05:13.570Z,70.30
2017-09-28T19:07:41.873Z,67.40
2017-09-28T19:10:10.269Z,68.60
2017-09-28T19:12:41.796Z,70.00
2017-09-28T19:15:10.087Z,68.30
2017-09-28T19:17:38.453Z,69.00
2017-09-28T19:20:07.953Z,70.40
2017-09-28T19:22:36.214Z,69.10
2017-09-28T19:25:06.669Z,72.10
2017-09-28T19:27:35.069Z,70.90
2017-09-28T19:30:04.097Z,70.30
2017-09-28T19:32:33.342Z,69.40
2017-09-28T19:35:01.758Z,70.30
2017-09-28T19:37:30.107Z,69.80
2017-09-28T19:39:59.510Z,70.70
2017-09-28T19:42:28.282Z,69.70
2017-09-28T19:44:56.661Z,73.20
2017-09-28T19:47:24.901Z,72.70
2017-09-28T19:49:53.243Z,74.80
2017-09-28T19:52:22.829Z,74.90
2017-09-28T19:54:52.134Z,73.90
2017-09-28T19:57:24.543Z,74.20
2017-09-28T19:59:52.926Z,73.50
2017-09-28T20:02:22.303Z,76.70
2017-09-28T20:04:51.578Z,74.70
2017-09-28T20:07:19.870Z,74.90
2017-09-28T20:09:48.281Z,75.00
2017-09-28T20:12:17.353Z,75.10
2017-09-28T20:14:46.542Z,75.10
2017-09-28T20:17:14.937Z,74.10
2017-09-28T20:19:43.354Z,72.50
2017-09-28T20:22:11.804Z,76.20
2017-09-28T20:24:40.070Z,76.30
2017-09-28T20:27:08.913Z,75.60
2017-09-28T20:29:37.225Z,80.80
2017-09-28T20:32:05.507Z,77.30
2017-09-28T20:34:33.779Z,77.60
2017-09-28T20:37:02.018Z,76.80
2017-09-28T20:39:31.272Z,78.90
2017-09-28T20:42:00.322Z,78.80
2017-09-28T20:44:28.579Z,78.70
2017-09-28T20:46:57.198Z,78.40
2017-09-28T20:49:26.412Z,78.00
2017-09-28T20:51:56.840Z,78.00
2017-09-28T20:54:25.836Z,82.20
2017-09-28T20:56:54.239Z,79.10
2017-09-28T20:59:23.510Z,78.40
2017-09-28T21:01:51.903Z,78.20
2017-09-28T21:04:20.946Z,80.00
2017-09-28T21:06:49.284Z,79.30
2017-09-28T21:09:20.497Z,79.70
2017-09-28T21:11:48.874Z,79.50
2017-09-28T21:14:17.132Z,79.30
2017-09-28T21:16:45.539Z,79.50
2017-09-28T21:19:14.890Z,80.40
2017-09-28T21:21:43.138Z,80.60
2017-09-28T21:24:12.154Z,79.40
2017-09-28T21:26:40.425Z,79.40
2017-09-28T21:29:08.678Z,81.80
2017-09-28T21:31:37.753Z,82.70
2017-09-28T21:34:06.417Z,83.10
2017-09-28T21:36:34.666Z,80.80
2017-09-28T21:39:02.923Z,79.30
2017-09-28T21:41:31.197Z,81.80
2017-09-28T21:44:00.214Z,79.00
2017-09-28T21:46:28.469Z,79.00
2017-09-28T21:48:56.812Z,80.30
2017-09-28T21:51:25.046Z,82.00
2017-09-28T21:53:53.314Z,83.70
2017-09-28T21:56:21.861Z,82.50
2017-09-28T21:58:50.106Z,82.80
2017-09-28T22:01:18.362Z,83.10
2017-09-28T22:03:46.638Z,85.20
2017-09-28T22:06:14.889Z,86.10
2017-09-28T22:08:43.141Z,84.30
2017-09-28T22:11:11.417Z,84.10
2017-09-28T22:13:39.670Z,83.10
2017-09-28T22:16:07.917Z,85.00
2017-09-28T22:18:36.257Z,85.20
2017-09-28T22:21:04.511Z,84.20
2017-09-28T22:23:32.755Z,83.00
2017-09-28T22:26:01.031Z,85.80
2017-09-28T22:28:29.277Z,82.80
2017-09-28T22:30:58.289Z,82.70
2017-09-28T22:33:26.563Z,82.80
2017-09-28T22:35:54.821Z,86.80
2017-09-28T22:38:23.846Z,82.90
2017-09-28T22:40:52.355Z,83.00
2017-09-28T22:43:20.618Z,82.00
2017-09-28T22:45:48.882Z,82.40
2017-09-28T22:48:17.154Z,82.60
2017-09-28T22:50:45.406Z,84.90
2017-09-28T22:53:14.426Z,83.50
2017-09-28T22:55:42.698Z,83.50
2017-09-28T22:58:11.569Z,83.20
2017-09-28T23:00:40.811Z,84.30
2017-09-28T23:03:09.598Z,84.30
2017-09-28T23:05:37.909Z,85.50
2017-09-28T23:08:06.186Z,87.30
2017-09-28T23:10:34.461Z,85.40
2017-09-28T23:13:02.718Z,89.00
2017-09-28T23:15:30.962Z,84.80
2017-09-28T23:17:59.237Z,85.20
2017-09-28T23:20:27.482Z,84.80
2017-09-28T23:22:55.734Z,89.40
2017-09-28T23:25:24.402Z,88.70
2017-09-28T23:27:52.658Z,84.90
2017-09-28T23:30:20.917Z,87.80
2017-09-28T23:32:49.182Z,86.30
2017-09-28T23:35:17.433Z,87.10
2017-09-28T23:37:45.684Z,85.50
2017-09-28T23:40:13.954Z,84.90
2017-09-28T23:42:42.210Z,84.40
2017-09-28T23:45:10.469Z,85.40
2017-09-28T23:47:39.854Z,84.80
2017-09-28T23:50:08.109Z,84.70
2017-09-28T23:52:36.361Z,85.60
2017-09-28T23:55:04.682Z,87.00
2017-09-28T23:57:32.934Z,86.10
